Valley Center, California
Current Conditions -  °F | °C
As of 10:53 PM on Monday 20 Oct 2014 (Local Time) from KRNM Reporting Station
Haze Haze  
Wind Chill: 62°   Ceiling: 600
Heat Index: 62°   Visibility: 6mi
Dew Point: 59°   Wind: 0mph
Humidity: 90%   Direction: NA
Pressure: 29.94"   Gusts: NA
Location:  33.22°N, 117.04°W
Report Text: KRNM 210553Z AUTO 00000KT 6SM BR OVC006 17/15 A2994 RMK AO2 SLP128 T01670150 10228 20144 50007 TSNO
Loading
Personal Weather Stations






























Interactive Weather Map
Tropical Storm Tracking
New forecast layout! Learn more

10-Day Weather Forecast

Advertisements
Track Severe Weather on mobile